KDSM/DSM METAR and TAF weather

Enter ICAO airport designator
Station Type Date Time Source
KDSM METAR 2019/04/25 20:54 UTC NOAA

KDSM 252054Z 05010G20KT 10SM -RA FEW020 SCT070 SCT120 BKN200 12/08 A2989 RMK AO2 SLP124 P0004 60006 T01170083 50022


Station Type Date Time Source
KDSM Decoded METAR 2019/04/25 20:54 UTC NOAA

DES MOINES INTERNATIONAL, IA, United States (KDSM) 41-32N 93-40W 295M
Apr 25, 2019 - 04:54 PM EDT / 2019.04.25 2054 UTC
Wind: from the NE (050 degrees) at 12 MPH (10 KT) gusting to 23 MPH (20 KT):0
Visibility: 10 mile(s):0
Sky conditions: mostly cloudy
Weather: light rain
Precipitation last hour: 0.04 inches
Temperature: 53.1 F (11.7 C)
Dew Point: 46.9 F (8.3 C)
Relative Humidity: 79%
Pressure (altimeter): 29.89 in. Hg (1012 hPa)
Pressure tendency: 0.06 inches (2.2 hPa) higher than three hours ago
ob: KDSM 252054Z 05010G20KT 10SM -RA FEW020 SCT070 SCT120 BKN200 12/08 A2989 RMK AO2 SLP124 P0004 60006 T01170083 50022
cycle: 21

Station Type Date Time Source
KDSM TAF 2019/04/25 18:33 UTC NOAA

TAF KDSM 251730Z 2518/2618 36018G29KT P6SM VCSH BKN030 OVC110
FM252000 36014G22KT 6SM -SHRA BR BKN040
FM252200 36012KT P6SM VCSH BKN110
FM252300 35009KT P6SM FEW200
FM260900 31008KT P6SM SKC WS020/34040KT
FM261000 33008KT P6SM SKC

Example: see airport list